createdAt,value
2023-08-11T00:00:24.727Z,0.63
2023-08-11T00:02:51.837Z,1.00
2023-08-11T00:05:19.694Z,0.80
2023-08-11T00:07:47.813Z,0.80
2023-08-11T00:10:14.402Z,0.80
2023-08-11T00:12:41.003Z,0.80
2023-08-11T00:15:08.154Z,0.80
2023-08-11T00:17:35.225Z,0.90
2023-08-11T00:20:02.091Z,0.85
2023-08-11T00:22:28.867Z,0.70
2023-08-11T00:24:55.481Z,0.73
2023-08-11T00:27:22.452Z,0.70
2023-08-11T00:29:49.168Z,0.95
2023-08-11T00:32:15.769Z,0.70
2023-08-11T00:34:42.350Z,0.80
2023-08-11T00:37:09.932Z,0.95
2023-08-11T00:39:36.925Z,0.50
2023-08-11T00:42:03.701Z,0.73
2023-08-11T00:44:30.270Z,1.00
2023-08-11T00:46:58.032Z,0.80
2023-08-11T00:49:25.049Z,0.70
2023-08-11T00:51:52.051Z,0.80
2023-08-11T00:54:18.886Z,0.70
2023-08-11T00:56:46.029Z,0.80
2023-08-11T00:59:17.000Z,0.90
2023-08-11T01:01:43.619Z,0.60
2023-08-11T01:04:10.370Z,0.90
2023-08-11T01:07:02.549Z,0.80
2023-08-11T01:09:42.159Z,0.70
2023-08-11T01:12:28.518Z,0.80
2023-08-11T01:15:35.165Z,1.00
2023-08-11T01:18:04.425Z,0.93
2023-08-11T01:20:32.056Z,1.15
2023-08-11T01:23:00.996Z,0.70
2023-08-11T01:25:27.641Z,1.00
2023-08-11T01:27:56.897Z,0.80
2023-08-11T01:30:24.683Z,0.80
2023-08-11T01:32:54.385Z,1.00
2023-08-11T01:35:33.729Z,1.17
2023-08-11T01:38:07.343Z,0.80
2023-08-11T01:40:34.148Z,0.80
2023-08-11T01:43:03.134Z,0.57
2023-08-11T01:45:29.908Z,1.05
2023-08-11T01:47:56.928Z,1.00
2023-08-11T01:50:23.985Z,0.60
2023-08-11T01:52:53.134Z,0.93
2023-08-11T01:55:19.778Z,0.70
2023-08-11T01:57:57.704Z,1.00
2023-08-11T02:00:27.003Z,0.80
2023-08-11T02:02:53.857Z,1.08
2023-08-11T02:05:20.743Z,0.88
2023-08-11T02:07:47.402Z,0.98
2023-08-11T02:10:14.041Z,0.90
2023-08-11T02:12:41.688Z,0.73
2023-08-11T02:15:08.781Z,1.05
2023-08-11T02:17:38.914Z,0.90
2023-08-11T02:20:22.579Z,1.08
2023-08-11T02:22:50.889Z,0.90
2023-08-11T02:25:17.673Z,0.80
2023-08-11T02:27:45.070Z,0.80
2023-08-11T02:30:12.761Z,0.82
2023-08-11T02:32:41.309Z,0.82
2023-08-11T02:35:08.576Z,1.05
2023-08-11T02:37:35.265Z,0.88
2023-08-11T02:40:01.965Z,0.98
2023-08-11T02:42:28.629Z,1.00
2023-08-11T02:44:55.241Z,0.82
2023-08-11T02:47:22.077Z,0.90
2023-08-11T02:49:49.040Z,0.98
2023-08-11T02:52:15.850Z,0.90
2023-08-11T02:54:42.901Z,1.00
2023-08-11T02:57:09.559Z,1.00
2023-08-11T02:59:36.190Z,1.00
2023-08-11T03:02:03.365Z,0.98
2023-08-11T03:04:30.136Z,0.85
2023-08-11T03:06:56.913Z,0.77
2023-08-11T03:09:23.516Z,0.70
2023-08-11T03:11:50.142Z,1.10
2023-08-11T03:14:16.748Z,0.80
2023-08-11T03:16:43.355Z,0.90
2023-08-11T03:19:10.007Z,0.90
2023-08-11T03:21:38.113Z,0.95
2023-08-11T03:24:05.597Z,1.00
2023-08-11T03:26:32.167Z,0.90
2023-08-11T03:28:58.772Z,0.75
2023-08-11T03:31:25.349Z,1.05
2023-08-11T03:33:51.934Z,1.00
2023-08-11T03:36:18.568Z,0.75
2023-08-11T03:38:45.244Z,0.80
2023-08-11T03:41:11.869Z,0.90
2023-08-11T03:43:38.485Z,1.00
2023-08-11T03:46:05.145Z,0.73
2023-08-11T03:48:31.838Z,0.95
2023-08-11T03:51:02.366Z,0.90
2023-08-11T03:53:30.736Z,1.10
2023-08-11T03:55:57.343Z,1.08
2023-08-11T03:58:24.696Z,0.90
2023-08-11T04:00:51.405Z,0.98
2023-08-11T04:03:18.882Z,0.98
2023-08-11T04:05:45.633Z,0.90
2023-08-11T04:08:12.593Z,1.10
2023-08-11T04:10:39.413Z,1.00
2023-08-11T04:13:06.087Z,1.05
2023-08-11T04:15:32.777Z,1.02
2023-08-11T04:18:02.472Z,1.13
2023-08-11T04:20:30.084Z,0.80
2023-08-11T04:22:57.251Z,0.80
2023-08-11T04:25:24.858Z,1.00
2023-08-11T04:27:51.426Z,1.00
2023-08-11T04:30:18.998Z,0.95
2023-08-11T04:32:46.080Z,0.90
2023-08-11T04:35:12.795Z,1.00
2023-08-11T04:37:40.287Z,1.27
2023-08-11T04:40:10.678Z,1.00
2023-08-11T04:42:38.176Z,0.90
2023-08-11T04:45:05.176Z,1.30
2023-08-11T04:47:31.783Z,0.93
2023-08-11T04:49:58.428Z,1.10
2023-08-11T04:52:25.026Z,1.05
2023-08-11T04:54:52.178Z,1.00
2023-08-11T04:57:18.805Z,0.98
2023-08-11T04:59:46.947Z,1.00
2023-08-11T05:02:14.075Z,1.00
2023-08-11T05:04:41.984Z,1.10
2023-08-11T05:07:08.753Z,1.10
2023-08-11T05:09:39.391Z,1.00
2023-08-11T05:12:06.471Z,0.98
2023-08-11T05:14:33.419Z,1.13
2023-08-11T05:17:02.247Z,1.20
2023-08-11T05:19:32.645Z,1.00
2023-08-11T05:21:59.303Z,1.45
2023-08-11T05:24:25.903Z,1.17
2023-08-11T05:26:52.526Z,1.30
2023-08-11T05:29:19.159Z,1.10
2023-08-11T05:31:45.802Z,1.00
2023-08-11T05:34:12.429Z,1.08
2023-08-11T05:36:39.010Z,1.00
2023-08-11T05:39:06.886Z,1.70
2023-08-11T05:41:33.513Z,1.40
2023-08-11T05:44:00.155Z,1.48
2023-08-11T05:46:26.825Z,1.20
2023-08-11T05:48:53.456Z,1.40
2023-08-11T05:51:20.334Z,1.27
2023-08-11T05:53:48.222Z,1.13
2023-08-11T05:56:15.604Z,1.40
2023-08-11T05:58:42.580Z,1.30
2023-08-11T06:01:11.067Z,1.40
2023-08-11T06:03:37.783Z,1.40
2023-08-11T06:06:08.576Z,1.40
2023-08-11T06:08:35.347Z,1.40
2023-08-11T06:11:02.051Z,1.20
2023-08-11T06:13:28.775Z,1.15
2023-08-11T06:15:55.642Z,1.05
2023-08-11T06:18:22.269Z,1.10
2023-08-11T06:20:48.954Z,1.35
2023-08-11T06:23:15.557Z,1.27
2023-08-11T06:25:42.920Z,1.13
2023-08-11T06:28:09.618Z,1.05
2023-08-11T06:30:36.226Z,1.35
2023-08-11T06:33:04.297Z,1.30
2023-08-11T06:35:31.190Z,1.20
2023-08-11T06:37:58.424Z,1.20
2023-08-11T06:40:25.052Z,1.25
2023-08-11T06:42:51.728Z,1.33
2023-08-11T06:45:19.197Z,1.30
2023-08-11T06:47:45.842Z,1.30
2023-08-11T06:50:12.485Z,1.10
2023-08-11T06:52:39.144Z,1.30
2023-08-11T06:55:06.471Z,1.08
2023-08-11T06:57:33.293Z,1.15
2023-08-11T07:00:00.063Z,1.05
2023-08-11T07:02:26.810Z,1.20
2023-08-11T07:04:53.459Z,1.40
2023-08-11T07:07:20.064Z,1.40
2023-08-11T07:09:46.976Z,1.30
2023-08-11T07:12:13.557Z,1.40
2023-08-11T07:14:40.259Z,1.23
2023-08-11T07:17:06.978Z,1.30
2023-08-11T07:19:34.457Z,1.20
2023-08-11T07:22:01.071Z,1.10
2023-08-11T07:24:28.047Z,1.40
2023-08-11T07:26:54.630Z,1.25
2023-08-11T07:29:21.224Z,1.20
2023-08-11T07:31:47.841Z,1.10
2023-08-11T07:34:14.544Z,1.70
2023-08-11T07:36:41.896Z,1.40
2023-08-11T07:39:21.811Z,1.77
2023-08-11T07:41:49.994Z,1.60
2023-08-11T07:44:16.871Z,1.80
2023-08-11T07:46:43.585Z,1.70
2023-08-11T07:49:10.316Z,1.50
2023-08-11T07:51:37.108Z,1.58
2023-08-11T07:54:04.028Z,1.45
2023-08-11T07:56:30.673Z,1.67
2023-08-11T07:58:57.348Z,1.70
2023-08-11T08:01:25.595Z,2.10
2023-08-11T08:03:52.358Z,1.60
2023-08-11T08:06:19.173Z,1.55
2023-08-11T08:08:45.898Z,1.60
2023-08-11T08:11:12.648Z,1.42
2023-08-11T08:13:39.333Z,1.50
2023-08-11T08:16:06.102Z,1.95
2023-08-11T08:18:33.610Z,1.55
2023-08-11T08:21:00.197Z,1.77
2023-08-11T08:23:26.768Z,1.80
2023-08-11T08:25:53.410Z,1.73
2023-08-11T08:28:20.045Z,1.65
2023-08-11T08:30:47.126Z,1.70
2023-08-11T08:33:13.809Z,1.90
2023-08-11T08:35:40.561Z,1.60
2023-08-11T08:38:07.164Z,1.60
2023-08-11T08:40:35.718Z,1.38
2023-08-11T08:43:04.570Z,1.50
2023-08-11T08:45:35.942Z,1.60
2023-08-11T08:48:07.570Z,1.48
2023-08-11T08:50:34.576Z,1.42
2023-08-11T08:53:02.398Z,1.80
2023-08-11T08:55:29.053Z,1.70
2023-08-11T08:57:56.338Z,1.70
2023-08-11T09:00:24.219Z,1.55
2023-08-11T09:02:52.277Z,1.80
2023-08-11T09:05:19.165Z,2.05
2023-08-11T09:07:45.773Z,1.50
2023-08-11T09:10:12.591Z,1.60
2023-08-11T09:12:39.182Z,1.83
2023-08-11T09:15:13.324Z,2.15
2023-08-11T09:17:40.685Z,1.63
2023-08-11T09:20:11.218Z,1.90
2023-08-11T09:22:39.426Z,1.58
2023-08-11T09:25:06.709Z,1.95
2023-08-11T09:27:33.869Z,2.08
2023-08-11T09:30:00.962Z,1.70
2023-08-11T09:32:27.884Z,1.90
2023-08-11T09:34:54.712Z,1.92
2023-08-11T09:37:21.394Z,1.95
2023-08-11T09:39:50.211Z,1.92
2023-08-11T09:42:17.574Z,1.98
2023-08-11T09:44:45.015Z,2.05
2023-08-11T09:47:17.735Z,2.00
2023-08-11T09:49:49.693Z,2.25
2023-08-11T09:52:16.513Z,2.63
2023-08-11T09:54:44.957Z,2.55
2023-08-11T09:57:13.813Z,1.90
2023-08-11T09:59:41.344Z,2.50
2023-08-11T10:02:13.975Z,2.03
2023-08-11T10:04:45.186Z,2.05
2023-08-11T10:07:14.436Z,2.35
2023-08-11T10:09:42.976Z,2.17
2023-08-11T10:12:09.855Z,2.17
2023-08-11T10:14:37.941Z,2.38
2023-08-11T10:17:04.879Z,2.17
2023-08-11T10:19:32.268Z,1.90
2023-08-11T10:22:00.603Z,1.65
2023-08-11T10:24:27.390Z,2.20
2023-08-11T10:26:54.219Z,2.20
2023-08-11T10:29:21.097Z,1.90
2023-08-11T10:31:56.015Z,1.70
2023-08-11T10:34:24.269Z,1.90
2023-08-11T10:36:53.826Z,2.10
2023-08-11T10:39:21.539Z,1.92
2023-08-11T10:41:48.757Z,2.03
2023-08-11T10:44:19.700Z,1.98
2023-08-11T10:46:47.530Z,1.67
2023-08-11T10:49:14.842Z,1.83
2023-08-11T10:51:42.613Z,1.98
2023-08-11T10:54:12.362Z,2.05
2023-08-11T10:56:43.576Z,2.03
2023-08-11T10:59:12.836Z,2.20
2023-08-11T11:01:47.990Z,2.20
2023-08-11T11:04:15.717Z,1.95
2023-08-11T11:06:42.889Z,2.10
2023-08-11T11:09:09.473Z,2.00
2023-08-11T11:11:37.922Z,2.08
2023-08-11T11:14:05.625Z,2.05
2023-08-11T11:16:33.840Z,2.08
2023-08-11T11:19:05.096Z,2.00
2023-08-11T11:21:31.769Z,1.92
2023-08-11T11:23:59.227Z,1.55
2023-08-11T11:26:27.804Z,2.10
2023-08-11T11:28:55.612Z,1.88
2023-08-11T11:31:23.358Z,1.88
2023-08-11T11:33:51.177Z,2.20
2023-08-11T11:36:19.748Z,1.67
2023-08-11T11:38:46.660Z,1.83
2023-08-11T11:41:14.330Z,2.10
2023-08-11T11:43:41.117Z,1.65
2023-08-11T11:46:17.309Z,2.08
2023-08-11T11:48:49.920Z,2.00
2023-08-11T11:51:17.899Z,1.80
2023-08-11T11:53:45.352Z,1.90
2023-08-11T11:56:16.184Z,1.83
2023-08-11T11:58:50.092Z,1.90
2023-08-11T12:01:22.041Z,1.70
2023-08-11T12:03:50.224Z,2.03
2023-08-11T12:06:21.467Z,1.73
2023-08-11T12:08:51.469Z,2.10
2023-08-11T12:11:25.601Z,1.98
2023-08-11T12:13:52.531Z,2.20
2023-08-11T12:16:19.665Z,2.17
2023-08-11T12:18:46.393Z,1.92
2023-08-11T12:21:13.855Z,1.98
2023-08-11T12:23:40.436Z,2.20
2023-08-11T12:26:08.852Z,1.90
2023-08-11T12:28:35.487Z,2.10
2023-08-11T12:31:04.404Z,2.00
2023-08-11T12:33:31.191Z,1.67
2023-08-11T12:35:57.944Z,2.08
2023-08-11T12:38:24.535Z,2.00
2023-08-11T12:40:51.101Z,1.70
2023-08-11T12:43:17.996Z,2.33
2023-08-11T12:45:48.535Z,1.95
2023-08-11T12:48:16.064Z,2.17
2023-08-11T12:50:42.921Z,2.00
2023-08-11T12:53:09.830Z,1.88
2023-08-11T12:55:38.462Z,1.90
2023-08-11T12:58:05.853Z,1.80
2023-08-11T13:00:33.013Z,2.03
2023-08-11T13:02:59.692Z,2.08
2023-08-11T13:05:27.503Z,1.98
2023-08-11T13:07:55.278Z,1.83
2023-08-11T13:10:22.492Z,1.98
2023-08-11T13:12:50.112Z,2.03
2023-08-11T13:15:17.095Z,2.05
2023-08-11T13:17:45.754Z,1.83
2023-08-11T13:20:13.614Z,2.05
2023-08-11T13:22:43.392Z,2.00
2023-08-11T13:25:10.861Z,2.08
2023-08-11T13:27:38.365Z,2.03
2023-08-11T13:30:15.178Z,1.90
2023-08-11T13:32:43.188Z,2.08
2023-08-11T13:35:10.319Z,2.05
2023-08-11T13:37:36.990Z,2.20
2023-08-11T13:40:06.419Z,2.13
2023-08-11T13:42:33.136Z,2.00
2023-08-11T13:44:59.831Z,1.83
2023-08-11T13:47:26.510Z,1.98
2023-08-11T13:49:54.332Z,2.30
2023-08-11T13:52:20.907Z,1.95
2023-08-11T13:54:58.560Z,2.08
2023-08-11T13:57:25.941Z,2.15
2023-08-11T13:59:54.752Z,1.95
2023-08-11T14:02:21.365Z,2.08
2023-08-11T14:04:48.047Z,1.92
2023-08-11T14:07:28.267Z,1.95
2023-08-11T14:09:56.511Z,2.10
2023-08-11T14:12:23.179Z,2.22
2023-08-11T14:14:49.789Z,2.20
2023-08-11T14:17:16.444Z,2.00
2023-08-11T14:19:43.102Z,2.53
2023-08-11T14:22:09.993Z,2.10
2023-08-11T14:24:36.816Z,2.08
2023-08-11T14:27:03.495Z,2.05
2023-08-11T14:29:30.096Z,2.17
2023-08-11T14:32:06.305Z,2.33
2023-08-11T14:34:40.786Z,2.15
2023-08-11T14:37:07.683Z,2.45
2023-08-11T14:39:34.500Z,2.00
2023-08-11T14:42:01.097Z,1.75
2023-08-11T14:44:27.700Z,2.33
2023-08-11T14:46:54.504Z,2.00
2023-08-11T14:49:21.212Z,2.15
2023-08-11T14:51:49.505Z,2.10
2023-08-11T14:54:16.186Z,2.13
2023-08-11T14:56:43.136Z,2.00
2023-08-11T14:59:09.721Z,2.33
2023-08-11T15:01:36.375Z,2.05
2023-08-11T15:04:03.064Z,2.15
2023-08-11T15:06:29.664Z,2.00
2023-08-11T15:08:56.268Z,2.30
2023-08-11T15:11:22.870Z,2.30
2023-08-11T15:13:49.483Z,2.35
2023-08-11T15:16:16.095Z,2.10
2023-08-11T15:18:42.712Z,2.50
2023-08-11T15:21:09.512Z,2.00
2023-08-11T15:23:37.102Z,2.10
2023-08-11T15:26:04.956Z,2.28
2023-08-11T15:28:32.246Z,2.67
2023-08-11T15:31:00.517Z,2.28
2023-08-11T15:33:27.445Z,2.10
2023-08-11T15:35:54.538Z,2.03
2023-08-11T15:38:22.583Z,2.08
2023-08-11T15:40:49.498Z,2.47
2023-08-11T15:43:16.664Z,2.40
2023-08-11T15:45:43.259Z,2.42
2023-08-11T15:48:10.050Z,2.17
2023-08-11T15:50:37.396Z,2.42
2023-08-11T15:53:04.764Z,2.33
2023-08-11T15:55:36.603Z,2.17
2023-08-11T15:58:04.390Z,2.07
2023-08-11T16:00:31.648Z,2.58
2023-08-11T16:02:58.354Z,2.38
2023-08-11T16:05:25.115Z,2.25
2023-08-11T16:07:51.692Z,2.10
2023-08-11T16:10:18.442Z,2.17
2023-08-11T16:12:45.083Z,2.30
2023-08-11T16:15:13.272Z,2.35
2023-08-11T16:17:40.589Z,2.35
2023-08-11T16:20:07.931Z,2.25
2023-08-11T16:22:34.890Z,2.53
2023-08-11T16:25:02.796Z,2.00
2023-08-11T16:27:32.913Z,2.33
2023-08-11T16:30:00.044Z,2.25
2023-08-11T16:32:26.737Z,2.22
2023-08-11T16:34:53.404Z,2.45
2023-08-11T16:37:21.106Z,2.03
2023-08-11T16:39:47.750Z,2.28
2023-08-11T16:42:15.249Z,2.40
2023-08-11T16:44:43.215Z,2.50
2023-08-11T16:47:09.854Z,2.08
2023-08-11T16:49:36.453Z,2.40
2023-08-11T16:52:03.436Z,2.42
2023-08-11T16:54:30.685Z,2.63
2023-08-11T16:56:58.348Z,2.20
2023-08-11T16:59:25.180Z,2.20
2023-08-11T17:01:51.911Z,2.50
2023-08-11T17:04:18.787Z,2.20
2023-08-11T17:06:45.407Z,2.58
2023-08-11T17:09:12.071Z,2.47
2023-08-11T17:11:38.673Z,2.38
2023-08-11T17:14:05.279Z,2.40
2023-08-11T17:16:32.006Z,2.45
2023-08-11T17:18:58.847Z,2.20
2023-08-11T17:21:25.512Z,2.05
2023-08-11T17:23:58.324Z,2.38
2023-08-11T17:26:24.965Z,2.50
2023-08-11T17:28:55.600Z,2.70
2023-08-11T17:31:23.713Z,2.47
2023-08-11T17:33:50.395Z,2.60
2023-08-11T17:36:16.980Z,2.33
2023-08-11T17:38:43.655Z,2.45
2023-08-11T17:41:10.626Z,2.38
2023-08-11T17:43:37.263Z,2.60
2023-08-11T17:46:04.055Z,2.85
2023-08-11T17:48:30.833Z,2.47
2023-08-11T17:50:57.486Z,2.40
2023-08-11T17:53:24.165Z,2.28
2023-08-11T17:55:50.993Z,2.58
2023-08-11T17:58:17.581Z,2.38
2023-08-11T18:00:44.257Z,2.55
2023-08-11T18:03:10.919Z,2.70
2023-08-11T18:05:40.778Z,2.30
2023-08-11T18:08:08.060Z,2.20
2023-08-11T18:10:38.100Z,1.85
2023-08-11T18:13:05.484Z,2.05
2023-08-11T18:15:32.120Z,2.40
2023-08-11T18:17:58.852Z,2.35
2023-08-11T18:20:26.347Z,2.10
2023-08-11T18:22:52.999Z,1.98
2023-08-11T18:25:19.770Z,2.35
2023-08-11T18:27:46.370Z,1.85
2023-08-11T18:30:13.029Z,2.30
2023-08-11T18:32:39.632Z,1.90
2023-08-11T18:35:07.281Z,2.40
2023-08-11T18:37:33.918Z,2.10
2023-08-11T18:40:00.752Z,2.40
2023-08-11T18:42:27.947Z,2.22
2023-08-11T18:44:54.583Z,1.98
2023-08-11T18:47:22.523Z,2.00
2023-08-11T18:49:49.279Z,2.25
2023-08-11T18:52:16.006Z,2.00
2023-08-11T18:54:42.866Z,2.20
2023-08-11T18:57:13.487Z,2.45
2023-08-11T18:59:40.942Z,2.17
2023-08-11T19:02:08.069Z,2.17
2023-08-11T19:04:34.957Z,2.13
2023-08-11T19:07:01.549Z,2.17
2023-08-11T19:09:28.214Z,1.90
2023-08-11T19:11:54.806Z,2.40
2023-08-11T19:14:22.046Z,2.10
2023-08-11T19:16:48.639Z,2.35
2023-08-11T19:19:17.249Z,1.95
2023-08-11T19:21:44.993Z,2.20
2023-08-11T19:24:12.908Z,2.05
2023-08-11T19:26:41.647Z,2.15
2023-08-11T19:29:08.457Z,2.20
2023-08-11T19:31:35.302Z,2.40
2023-08-11T19:34:02.026Z,2.20
2023-08-11T19:36:28.623Z,2.15
2023-08-11T19:38:55.278Z,2.05
2023-08-11T19:41:22.161Z,1.98
2023-08-11T19:43:48.786Z,2.55
2023-08-11T19:46:15.420Z,2.15
2023-08-11T19:48:42.175Z,1.63
2023-08-11T19:51:10.342Z,2.35
2023-08-11T19:53:36.979Z,1.98
2023-08-11T19:56:03.721Z,1.90
2023-08-11T19:58:30.299Z,2.00
2023-08-11T20:00:57.198Z,2.05
2023-08-11T20:03:24.124Z,2.03
2023-08-11T20:05:50.860Z,1.80
2023-08-11T20:08:17.552Z,1.80
2023-08-11T20:10:48.530Z,1.83
2023-08-11T20:13:15.354Z,1.77
2023-08-11T20:15:43.594Z,1.98
2023-08-11T20:18:10.390Z,1.77
2023-08-11T20:20:37.131Z,2.05
2023-08-11T20:23:03.956Z,1.83
2023-08-11T20:25:31.937Z,2.10
2023-08-11T20:27:59.315Z,2.13
2023-08-11T20:30:26.007Z,1.70
2023-08-11T20:32:53.461Z,2.38
2023-08-11T20:35:20.268Z,2.20
2023-08-11T20:37:46.904Z,1.67
2023-08-11T20:40:13.594Z,1.80
2023-08-11T20:42:40.293Z,1.77
2023-08-11T20:45:07.449Z,2.08
2023-08-11T20:47:34.076Z,2.03
2023-08-11T20:50:00.736Z,1.80
2023-08-11T20:52:27.384Z,1.98
2023-08-11T20:54:54.083Z,1.65
2023-08-11T20:57:21.773Z,2.00
2023-08-11T20:59:49.834Z,1.88
2023-08-11T21:02:16.479Z,1.80
2023-08-11T21:04:43.093Z,1.80
2023-08-11T21:07:09.956Z,2.17
2023-08-11T21:09:37.520Z,1.67
2023-08-11T21:12:04.323Z,2.03
2023-08-11T21:14:31.086Z,1.95
2023-08-11T21:17:00.401Z,1.90
2023-08-11T21:19:30.137Z,1.98
2023-08-11T21:21:56.759Z,1.80
2023-08-11T21:24:23.502Z,1.70
2023-08-11T21:26:50.148Z,1.88
2023-08-11T21:29:16.875Z,1.67
2023-08-11T21:31:44.667Z,2.10
2023-08-11T21:34:11.328Z,1.80
2023-08-11T21:36:38.486Z,1.70
2023-08-11T21:39:08.985Z,1.70
2023-08-11T21:41:36.208Z,2.10
2023-08-11T21:44:03.877Z,2.03
2023-08-11T21:46:31.427Z,1.83
2023-08-11T21:48:58.334Z,1.88
2023-08-11T21:51:24.934Z,1.80
2023-08-11T21:53:51.515Z,2.17
2023-08-11T21:56:19.622Z,1.90
2023-08-11T21:58:46.238Z,1.55
2023-08-11T22:01:12.968Z,1.90
2023-08-11T22:03:39.637Z,1.85
2023-08-11T22:06:06.308Z,1.70
2023-08-11T22:08:32.970Z,1.95
2023-08-11T22:10:59.610Z,1.70
2023-08-11T22:13:26.230Z,1.80
2023-08-11T22:15:52.841Z,1.90
2023-08-11T22:18:20.357Z,1.80
2023-08-11T22:20:46.956Z,1.63
2023-08-11T22:23:13.540Z,1.70
2023-08-11T22:25:40.677Z,1.80
2023-08-11T22:28:07.651Z,1.75
2023-08-11T22:30:35.853Z,1.55
2023-08-11T22:33:03.053Z,1.65
2023-08-11T22:35:29.761Z,1.77
2023-08-11T22:37:57.511Z,1.77
2023-08-11T22:40:24.112Z,1.80
2023-08-11T22:42:50.686Z,1.70
2023-08-11T22:45:17.380Z,1.40
2023-08-11T22:47:44.062Z,1.45
2023-08-11T22:50:11.460Z,1.60
2023-08-11T22:52:38.038Z,1.80
2023-08-11T22:55:04.868Z,1.60
2023-08-11T22:57:31.485Z,1.48
2023-08-11T22:59:58.203Z,2.05
2023-08-11T23:02:25.386Z,1.35
2023-08-11T23:04:55.387Z,1.83
2023-08-11T23:07:24.176Z,1.70
2023-08-11T23:09:50.988Z,1.70
2023-08-11T23:12:17.679Z,1.50
2023-08-11T23:14:44.319Z,1.48
2023-08-11T23:17:13.701Z,1.67
2023-08-11T23:19:42.124Z,1.48
2023-08-11T23:22:08.727Z,1.60
2023-08-11T23:24:35.352Z,1.85
2023-08-11T23:27:02.278Z,1.60
2023-08-11T23:29:28.983Z,1.35
2023-08-11T23:31:55.659Z,1.77
2023-08-11T23:34:22.288Z,1.50
2023-08-11T23:36:48.904Z,1.52
2023-08-11T23:39:15.511Z,1.67
2023-08-11T23:41:42.117Z,1.73
2023-08-11T23:44:08.728Z,1.42
2023-08-11T23:46:35.408Z,1.50
2023-08-11T23:49:01.993Z,1.63
2023-08-11T23:51:28.812Z,1.35
2023-08-11T23:53:57.477Z,1.60
2023-08-11T23:56:24.238Z,1.50
2023-08-11T23:58:51.360Z,1.42
